Tilghman, Maryland
Current Conditions -  °F | °C
As of 4:53 PM on Monday 26 Jan 2015 (Local Time) from KESN Reporting Station
Overcast Overcast  
Wind Chill: 26°   Ceiling: 1200
Heat Index: 36°   Visibility: 10mi
Dew Point: 36°   Wind: 15mph
Humidity: 100%   Direction: 40°NE
Pressure: 29.71"   Gusts: 23mph
Location:  38.72°N, 76.33°W
Report Text: KESN 262153Z 04013G20KT 10SM OVC012 02/02 A2971
Loading
Personal Weather Stations






























Interactive Weather Map New forecast layout! Learn more

10-Day Weather Forecast

Advertisements
Track Severe Weather on mobile